Time;durP1;ratioP1;P1;durP2;ratioP2;P2;SDS_P1;SDS_P2;PMS_P1;PMS_P2;Temp;Humidity;BMP_temperature;BMP_pressure;BME280_temperature;BME280_humidity;BME280_pressure;Samples;Min_cycle;Max_cycle;Signal;HPM_P1;HPM_P2
2021/01/30 00:00:06;;;;;;;23.40;11.37;;;;;;;-0.95;90.27;99781.69;5033129;28;20040;-69
2021/01/30 00:02:32;;;;;;;21.30;11.23;;;;;;;-1.00;90.39;99775.94;5032989;28;20375;-69
2021/01/30 00:04:57;;;;;;;28.43;12.47;;;;;;;-1.00;90.35;99773.31;5033048;28;20042;-69
2021/01/30 00:07:23;;;;;;;21.92;10.77;;;;;;;-1.01;90.28;99761.16;5032651;28;20284;-69
2021/01/30 00:09:49;;;;;;;20.33;10.60;;;;;;;-0.93;90.34;99766.69;5032922;28;20451;-69
2021/01/30 00:12:15;;;;;;;18.85;9.00;;;;;;;-1.00;89.92;99767.25;5031694;28;20069;-69
2021/01/30 00:14:40;;;;;;;22.97;11.10;;;;;;;-1.02;89.81;99772.59;5031889;28;20060;-69
2021/01/30 00:17:07;;;;;;;23.73;10.75;;;;;;;-0.98;89.95;99779.28;5031563;28;20052;-69
2021/01/30 00:19:33;;;;;;;20.67;10.77;;;;;;;-1.09;89.67;99782.69;5031765;28;20432;-69
2021/01/30 00:22:01;;;;;;;21.05;10.15;;;;;;;-1.12;89.78;99779.47;5032714;28;20112;-69
2021/01/30 00:24:28;;;;;;;18.15;9.52;;;;;;;-1.09;89.93;99787.91;5032539;28;20061;-69
2021/01/30 00:26:56;;;;;;;22.10;10.60;;;;;;;-1.12;89.65;99792.56;5014676;28;20037;-69
2021/01/30 00:29:24;;;;;;;25.30;10.30;;;;;;;-1.15;89.50;99805.84;5031585;28;20352;-69
2021/01/30 00:31:50;;;;;;;25.65;10.02;;;;;;;-1.09;89.49;99793.16;5032710;28;20090;-69
2021/01/30 00:34:17;;;;;;;25.23;10.77;;;;;;;-1.09;89.39;99797.56;5030888;28;20471;-69
2021/01/30 00:36:42;;;;;;;20.42;10.90;;;;;;;-1.11;89.39;99791.59;5031167;28;20029;-68
2021/01/30 00:39:07;;;;;;;21.17;10.53;;;;;;;-1.08;89.48;99804.47;5014949;28;20475;-68
2021/01/30 00:41:33;;;;;;;20.27;10.27;;;;;;;-1.12;89.45;99789.94;5032235;28;20340;-68
2021/01/30 00:43:59;;;;;;;26.15;12.05;;;;;;;-1.12;89.36;99808.28;5031336;28;20034;-69
2021/01/30 00:46:25;;;;;;;29.90;11.50;;;;;;;-1.21;89.36;99814.19;5031005;28;20186;-68
2021/01/30 00:48:50;;;;;;;22.98;12.07;;;;;;;-1.12;89.21;99813.53;5032183;28;20422;-68
2021/01/30 00:51:17;;;;;;;24.88;11.93;;;;;;;-1.12;89.29;99814.34;5030978;28;20030;-68
2021/01/30 00:53:44;;;;;;;24.30;11.73;;;;;;;-1.10;89.46;99808.97;5032135;28;20029;-68
2021/01/30 00:56:12;;;;;;;26.80;11.98;;;;;;;-1.14;89.48;99815.41;5030720;28;20037;-68
2021/01/30 00:58:39;;;;;;;24.58;13.32;;;;;;;-1.13;89.30;99819.69;5031037;28;20041;-68
2021/01/30 01:01:04;;;;;;;26.80;10.93;;;;;;;-1.14;89.40;99813.63;5031969;28;20028;-68
2021/01/30 01:03:30;;;;;;;23.65;11.63;;;;;;;-1.15;89.32;99817.19;5014697;28;20025;-68
2021/01/30 01:06:01;;;;;;;22.58;12.00;;;;;;;-1.10;89.24;99825.56;5030738;28;20033;-68
2021/01/30 01:08:26;;;;;;;29.07;13.17;;;;;;;-1.20;89.24;99823.69;5014257;28;20072;-68
2021/01/30 01:10:52;;;;;;;30.27;13.77;;;;;;;-1.18;89.17;99829.66;5031696;28;20041;-68
2021/01/30 01:13:17;;;;;;;28.08;13.57;;;;;;;-1.12;89.02;99830.06;5031728;28;20482;-68
2021/01/30 01:15:43;;;;;;;29.87;13.67;;;;;;;-1.15;89.01;99837.28;5030488;28;20073;-68
2021/01/30 01:18:09;;;;;;;25.80;13.35;;;;;;;-1.21;88.81;99840.38;5014225;28;20084;-68
2021/01/30 01:20:34;;;;;;;27.93;14.23;;;;;;;-1.19;88.74;99841.94;5031665;28;20071;-68
2021/01/30 01:23:00;;;;;;;26.30;12.23;;;;;;;-1.17;88.48;99833.94;5030515;28;20287;-68
2021/01/30 01:25:25;;;;;;;25.15;12.43;;;;;;;-1.18;88.17;99840.13;5031463;28;20033;-68
2021/01/30 01:27:51;;;;;;;21.63;11.40;;;;;;;-1.18;88.15;99843.59;5030197;28;20087;-68
2021/01/30 01:30:18;;;;;;;24.38;12.05;;;;;;;-1.20;88.03;99848.09;5031547;28;20447;-68
2021/01/30 01:32:44;;;;;;;26.23;12.75;;;;;;;-1.16;88.13;99851.34;5031353;28;20038;-68
2021/01/30 01:35:15;;;;;;;23.90;11.77;;;;;;;-1.17;87.95;99857.50;5031447;28;20030;-68
2021/01/30 01:37:41;;;;;;;26.92;11.63;;;;;;;-1.15;87.65;99858.25;5031021;28;20029;-68
2021/01/30 01:40:06;;;;;;;25.73;12.60;;;;;;;-1.18;87.71;99858.47;5031405;28;20039;-68
2021/01/30 01:42:32;;;;;;;28.05;13.75;;;;;;;-1.21;87.58;99863.94;5030351;28;20116;-68
2021/01/30 01:44:57;;;;;;;25.00;12.77;;;;;;;-1.20;87.55;99866.44;5031361;28;20044;-68
2021/01/30 01:47:30;;;;;;;28.63;13.13;;;;;;;-1.21;87.69;99874.41;5013664;28;20160;-68
2021/01/30 01:50:01;;;;;;;30.10;13.65;;;;;;;-1.15;87.66;99871.34;5031761;28;20049;-68
2021/01/30 01:52:32;;;;;;;29.85;14.38;;;;;;;-1.18;87.70;99872.41;5030987;28;20542;-68
2021/01/30 01:55:09;;;;;;;32.20;14.15;;;;;;;-1.21;87.57;99877.88;5030306;28;20055;-68
2021/01/30 01:57:36;;;;;;;29.30;13.57;;;;;;;-1.23;87.81;99879.75;5029953;28;20042;-68
2021/01/30 02:00:03;;;;;;;34.20;14.00;;;;;;;-1.23;88.00;99879.75;5013747;28;20029;-68
2021/01/30 02:02:34;;;;;;;29.17;14.05;;;;;;;-1.19;88.01;99888.25;5031191;28;20041;-68
2021/01/30 02:05:06;;;;;;;32.05;13.63;;;;;;;-1.18;87.90;99888.13;5031041;28;20357;-68
2021/01/30 02:07:36;;;;;;;27.35;15.10;;;;;;;-1.21;87.94;99884.91;5030931;28;20202;-68
2021/01/30 02:10:05;;;;;;;27.15;13.02;;;;;;;-1.16;88.22;99882.78;5030071;28;20041;-68
2021/01/30 02:12:30;;;;;;;27.75;12.35;;;;;;;-1.22;88.06;99881.41;5030798;28;20447;-68
2021/01/30 02:14:56;;;;;;;26.67;12.00;;;;;;;-1.19;87.56;99885.63;5030987;28;20057;-68
2021/01/30 02:17:48;;;;;;;25.90;12.23;;;;;;;-1.14;88.12;99886.97;5030663;28;20037;-68
2021/01/30 02:20:54;;;;;;;26.10;13.18;;;;;;;-1.10;87.93;99887.56;5030063;28;20714;-68
2021/01/30 02:23:25;;;;;;;27.13;12.07;;;;;;;-1.10;87.80;99891.06;5030121;28;20056;-68
2021/01/30 02:26:30;;;;;;;24.63;11.85;;;;;;;-1.03;87.49;99890.59;5029507;28;20372;-68
2021/01/30 02:29:12;;;;;;;22.50;11.55;;;;;;;-1.11;87.55;99899.84;5019940;28;20446;-68
2021/01/30 02:32:12;;;;;;;19.45;9.95;;;;;;;-1.15;87.48;99895.78;5030709;28;20038;-68
2021/01/30 02:35:15;;;;;;;22.10;11.25;;;;;;;-1.06;87.22;99896.88;5030830;28;20073;-68
2021/01/30 02:37:53;;;;;;;22.63;11.70;;;;;;;-1.18;87.42;99897.75;5029511;28;20451;-68
2021/01/30 02:40:22;;;;;;;29.70;11.27;;;;;;;-1.19;87.41;99898.72;5029726;28;20049;-68
2021/01/30 02:42:57;;;;;;;20.30;10.73;;;;;;;-1.17;87.33;99899.44;5030791;28;20049;-68
2021/01/30 02:45:26;;;;;;;26.00;12.15;;;;;;;-1.19;87.18;99899.56;5013316;28;20041;-68
2021/01/30 02:48:15;;;;;;;20.17;11.25;;;;;;;-1.22;87.27;99902.38;5013147;28;20037;-68
2021/01/30 02:50:47;;;;;;;20.20;10.75;;;;;;;-1.25;87.30;99907.00;5013085;28;20371;-68
2021/01/30 02:53:19;;;;;;;21.33;11.38;;;;;;;-1.30;87.18;99905.53;5029889;28;20041;-68
2021/01/30 02:55:45;;;;;;;18.95;9.48;;;;;;;-1.24;87.18;99911.28;5030392;28;20037;-68
2021/01/30 02:58:16;;;;;;;22.77;10.98;;;;;;;-1.28;87.05;99921.16;5033395;28;20095;-68
2021/01/30 03:00:44;;;;;;;17.95;8.73;;;;;;;-1.33;87.08;99921.47;5034247;28;20045;-68
2021/01/30 03:03:09;;;;;;;17.73;9.15;;;;;;;-1.24;87.03;99925.25;5033161;28;20340;-68
2021/01/30 03:05:34;;;;;;;16.77;8.40;;;;;;;-1.31;86.90;99924.00;5033004;28;20044;-68
2021/01/30 03:08:28;;;;;;;17.27;8.70;;;;;;;-1.33;87.03;99931.94;5033006;28;20107;-68
2021/01/30 03:11:05;;;;;;;15.73;8.68;;;;;;;-1.23;86.64;99936.53;5033062;28;20326;-68
2021/01/30 03:13:36;;;;;;;17.25;8.77;;;;;;;-1.21;86.73;99938.09;5033853;28;20451;-68
2021/01/30 03:16:11;;;;;;;17.40;9.93;;;;;;;-1.24;86.36;99930.47;5032892;28;20463;-68
2021/01/30 03:18:39;;;;;;;16.27;8.57;;;;;;;-1.28;86.19;99935.06;5016440;28;20043;-68
2021/01/30 03:21:07;;;;;;;14.40;8.38;;;;;;;-1.29;86.43;99943.03;5033896;28;20510;-68
2021/01/30 03:23:34;;;;;;;17.48;9.18;;;;;;;-1.32;86.65;99941.47;5033800;28;20060;-68
2021/01/30 03:26:06;;;;;;;19.50;10.20;;;;;;;-1.38;86.82;99944.53;5033507;28;20033;-68
2021/01/30 03:28:31;;;;;;;16.23;8.07;;;;;;;-1.30;86.64;99941.38;5016078;28;20041;-68
2021/01/30 03:30:57;;;;;;;14.38;7.65;;;;;;;-1.35;86.44;99941.69;5032756;28;20037;-68
2021/01/30 03:33:22;;;;;;;17.17;9.15;;;;;;;-1.32;86.79;99953.72;5033611;28;20025;-68
2021/01/30 03:35:48;;;;;;;16.57;8.17;;;;;;;-1.24;86.59;99945.34;5033358;28;20033;-68
2021/01/30 03:38:13;;;;;;;17.00;8.27;;;;;;;-1.24;86.42;99946.19;5032477;28;20657;-67
2021/01/30 03:40:38;;;;;;;12.73;6.33;;;;;;;-1.22;86.05;99953.91;5033372;28;20345;-68
2021/01/30 03:43:05;;;;;;;12.77;7.72;;;;;;;-1.35;86.05;99959.19;5015966;28;20292;-67
2021/01/30 03:45:31;;;;;;;12.15;6.47;;;;;;;-1.36;86.45;99960.09;5032420;28;20038;-68
2021/01/30 03:47:57;;;;;;;13.82;8.27;;;;;;;-1.38;86.16;99965.47;5033231;28;20091;-68
2021/01/30 03:50:23;;;;;;;12.93;5.90;;;;;;;-1.34;85.99;99964.28;5032437;28;20045;-68
2021/01/30 03:52:49;;;;;;;19.73;8.05;;;;;;;-1.25;85.96;99973.31;5033292;28;20056;-67
2021/01/30 03:55:15;;;;;;;12.82;6.72;;;;;;;-1.32;85.65;99965.03;5033095;28;20048;-67
2021/01/30 03:57:41;;;;;;;14.73;7.50;;;;;;;-1.27;85.68;99976.03;5032042;28;20041;-68
2021/01/30 04:00:10;;;;;;;10.85;5.95;;;;;;;-1.31;85.36;99977.19;5032183;28;20115;-68
2021/01/30 04:02:38;;;;;;;14.68;7.78;;;;;;;-1.31;85.36;99976.38;5033070;28;20061;-68
2021/01/30 04:05:04;;;;;;;12.25;6.97;;;;;;;-1.23;85.13;99968.81;5032952;28;20116;-68
2021/01/30 04:07:29;;;;;;;14.93;7.13;;;;;;;-1.23;85.00;99974.03;5032604;28;20033;-67
2021/01/30 04:09:55;;;;;;;13.20;6.97;;;;;;;-1.17;84.20;99973.63;5030615;28;20041;-67
2021/01/30 04:12:22;;;;;;;10.63;5.73;;;;;;;-1.31;84.20;99971.97;5031961;28;20048;-67
2021/01/30 04:14:47;;;;;;;9.90;5.15;;;;;;;-1.31;84.25;99979.81;5032805;28;20033;-67
2021/01/30 04:17:13;;;;;;;9.55;5.47;;;;;;;-1.24;83.76;99988.09;5032598;28;20451;-67
2021/01/30 04:19:39;;;;;;;9.40;4.93;;;;;;;-1.22;83.55;99986.19;5032844;28;20470;-67
2021/01/30 04:22:05;;;;;;;;;;;;;;;-1.27;83.87;99985.66;5032304;28;20033;-67
2021/01/30 04:24:30;;;;;;;11.15;5.28;;;;;;;-1.31;84.18;99986.84;5032539;28;19920;-67
2021/01/30 04:26:55;;;;;;;10.07;5.37;;;;;;;-1.28;83.87;99992.69;5032117;28;20034;-67
2021/01/30 04:29:21;;;;;;;11.63;5.53;;;;;;;-1.30;83.67;99993.75;5031316;28;20049;-67
2021/01/30 04:31:46;;;;;;;9.57;5.70;;;;;;;-1.31;83.52;99984.22;5030746;28;20292;-67
2021/01/30 04:34:11;;;;;;;8.53;5.13;;;;;;;-1.31;83.63;99997.31;5029851;28;20041;-67
2021/01/30 04:36:37;;;;;;;9.63;5.47;;;;;;;-1.34;83.23;99993.09;5029530;28;20037;-67
2021/01/30 04:39:03;;;;;;;10.02;6.03;;;;;;;-1.31;83.98;100002.56;5029731;28;20525;-67
2021/01/30 04:41:42;;;;;;;8.90;5.38;;;;;;;-1.35;83.88;99999.28;5031039;28;20037;-67
2021/01/30 04:44:22;;;;;;;11.73;4.90;;;;;;;-1.35;84.22;100001.91;5030266;28;20045;-67
2021/01/30 04:47:19;;;;;;;9.93;5.60;;;;;;;-1.35;83.62;100001.91;5029419;28;20132;-67
2021/01/30 04:49:57;;;;;;;12.27;5.75;;;;;;;-1.35;83.63;99988.81;5029521;28;20049;-67
2021/01/30 04:52:36;;;;;;;11.40;5.35;;;;;;;-1.35;83.58;99995.84;5030303;28;20068;-68
2021/01/30 04:55:15;;;;;;;6.72;4.22;;;;;;;-1.47;83.50;99994.06;5029415;28;20037;-67
2021/01/30 04:57:49;;;;;;;7.55;4.10;;;;;;;-1.50;83.12;99995.09;5012904;28;20107;-67
2021/01/30 05:00:37;;;;;;;10.05;5.93;;;;;;;-1.51;82.92;99996.03;5031863;28;20048;-67
2021/01/30 05:03:05;;;;;;;6.97;4.40;;;;;;;-1.50;82.36;99992.47;5031969;28;20033;-67
2021/01/30 05:05:32;;;;;;;7.72;4.57;;;;;;;-1.50;82.45;99998.56;5030773;28;20040;-67
2021/01/30 05:08:28;;;;;;;9.30;4.95;;;;;;;-1.56;81.60;99998.97;5030693;28;20067;-67
2021/01/30 05:11:01;;;;;;;9.35;5.30;;;;;;;-1.58;82.14;100000.03;5030097;28;20489;-67
2021/01/30 05:13:30;;;;;;;5.57;3.70;;;;;;;-1.58;81.50;100006.09;5030852;28;20095;-67
2021/01/30 05:16:16;;;;;;;5.90;3.72;;;;;;;-1.54;80.84;99999.72;5031447;28;20471;-67
2021/01/30 05:18:49;;;;;;;6.03;3.70;;;;;;;-1.55;80.77;100005.03;5031487;28;20044;-67
2021/01/30 05:21:37;;;;;;;7.57;4.30;;;;;;;-1.53;81.50;99997.91;5030522;28;20052;-67
2021/01/30 05:24:03;;;;;;;8.43;4.10;;;;;;;-1.52;81.25;100000.44;5014189;28;20037;-67
2021/01/30 05:26:32;;;;;;;7.05;4.65;;;;;;;-1.48;80.91;100006.31;5030387;28;20066;-67
2021/01/30 05:29:28;;;;;;;6.60;3.70;;;;;;;-1.50;81.39;100003.81;5031320;28;20471;-67
2021/01/30 05:32:07;;;;;;;11.60;5.25;;;;;;;-1.53;81.45;100004.00;5031450;28;20506;-67
2021/01/30 05:34:56;;;;;;;7.18;4.93;;;;;;;-1.58;81.68;100005.25;5030517;28;20132;-67
2021/01/30 05:37:35;;;;;;;10.45;6.20;;;;;;;-1.57;81.65;100009.53;5031026;28;20030;-67
2021/01/30 05:40:54;;;;;;;13.27;6.10;;;;;;;-1.67;82.22;100011.94;5030239;28;20060;-67
2021/01/30 05:43:45;;;;;;;12.77;6.15;;;;;;;-1.68;82.75;100014.69;5012636;28;20120;-67
2021/01/30 05:46:19;;;;;;;12.40;6.75;;;;;;;-1.71;82.87;100010.44;5029413;28;20045;-67
2021/01/30 05:48:47;;;;;;;12.73;7.32;;;;;;;-1.68;83.36;100025.97;5031366;28;20123;-67
2021/01/30 05:51:19;;;;;;;15.02;6.45;;;;;;;-1.58;83.39;100028.81;5030133;28;20586;-67
2021/01/30 05:53:45;;;;;;;11.25;6.85;;;;;;;-1.60;83.01;100028.06;5031262;28;20037;-67
2021/01/30 05:56:11;;;;;;;12.60;6.63;;;;;;;-1.59;83.25;100041.06;5013557;28;20086;-67
2021/01/30 05:58:42;;;;;;;;;;;;;;;-1.63;83.58;100034.34;5031657;28;20048;-67
2021/01/30 06:01:16;;;;;;;14.27;7.85;;;;;;;-1.63;83.97;100033.53;5031050;28;19917;-67
2021/01/30 06:03:58;;;;;;;12.35;6.70;;;;;;;-1.65;83.38;100038.00;5030143;28;20608;-67
2021/01/30 06:06:26;;;;;;;16.70;7.20;;;;;;;-1.65;83.47;100041.47;5029630;28;20367;-67
2021/01/30 06:09:34;;;;;;;13.35;6.28;;;;;;;-1.61;82.70;100039.50;5013522;28;20045;-68
2021/01/30 06:12:02;;;;;;;11.68;5.78;;;;;;;-1.61;82.53;100047.34;5030889;28;20065;-67
2021/01/30 06:14:36;;;;;;;9.93;5.75;;;;;;;-1.64;82.58;100052.78;5031030;28;20068;-67
2021/01/30 06:17:27;;;;;;;9.13;5.00;;;;;;;-1.61;82.71;100053.41;5030528;28;20041;-67
2021/01/30 06:20:09;;;;;;;12.38;5.07;;;;;;;-1.70;82.50;100052.25;5029908;28;20498;-67
2021/01/30 06:22:35;;;;;;;9.65;5.35;;;;;;;-1.64;81.80;100058.00;5030043;28;20039;-67
2021/01/30 06:25:21;;;;;;;9.27;4.57;;;;;;;-1.66;81.68;100058.13;5013517;28;20025;-67
2021/01/30 06:27:52;;;;;;;9.50;5.70;;;;;;;-1.71;81.83;100054.94;5029677;28;20091;-67
2021/01/30 06:30:47;;;;;;;9.57;5.40;;;;;;;-1.76;82.55;100065.72;5013559;28;20037;-67
2021/01/30 06:33:28;;;;;;;11.45;5.78;;;;;;;-1.81;81.94;100057.34;5028267;28;20049;-68
2021/01/30 06:36:11;;;;;;;12.65;6.20;;;;;;;-1.80;82.12;100059.03;5034420;28;20072;-67
2021/01/30 06:38:43;;;;;;;11.82;6.45;;;;;;;-1.84;82.02;100062.78;5033567;28;20383;-68
2021/01/30 06:41:25;;;;;;;11.43;5.90;;;;;;;-1.85;82.27;100071.56;5034525;28;20116;-67
2021/01/30 06:44:02;;;;;;;12.00;6.10;;;;;;;-1.82;82.31;100066.13;5034407;28;20037;-67
2021/01/30 06:46:28;;;;;;;13.88;7.30;;;;;;;-1.88;82.34;100069.13;5034283;28;20340;-68
2021/01/30 06:48:56;;;;;;;12.68;6.65;;;;;;;-1.95;82.52;100073.09;5034397;28;20049;-67
2021/01/30 06:51:31;;;;;;;15.05;7.07;;;;;;;-1.98;82.85;100078.53;5034040;28;20068;-67
2021/01/30 06:54:24;;;;;;;12.60;6.85;;;;;;;-2.00;82.89;100072.56;5033841;28;20055;-67
2021/01/30 06:57:19;;;;;;;16.48;7.53;;;;;;;-1.97;83.13;100077.59;5031663;28;20439;-68
2021/01/30 07:00:03;;;;;;;13.57;7.38;;;;;;;-2.01;83.26;100089.19;5034329;28;20029;-67
2021/01/30 07:02:42;;;;;;;11.95;7.07;;;;;;;-2.03;83.70;100097.13;5034270;28;20049;-68
2021/01/30 07:05:08;;;;;;;12.73;6.95;;;;;;;-1.93;83.63;100092.97;5034065;28;20116;-67
2021/01/30 07:07:59;;;;;;;11.13;6.50;;;;;;;-1.90;83.33;100084.09;5032951;28;20129;-68
2021/01/30 07:10:41;;;;;;;11.30;6.10;;;;;;;-1.79;82.77;100086.88;5029166;28;20065;-67
2021/01/30 07:13:07;;;;;;;13.23;6.53;;;;;;;-1.80;82.49;100090.44;5032887;28;20084;-67
2021/01/30 07:15:36;;;;;;;11.77;6.80;;;;;;;-1.78;82.73;100085.06;5032787;28;20037;-67
2021/01/30 07:18:09;;;;;;;12.20;6.45;;;;;;;-1.77;82.52;100102.47;5033837;28;20497;-67
2021/01/30 07:20:46;;;;;;;13.23;7.20;;;;;;;-1.76;83.11;100096.28;5033799;28;20041;-67
2021/01/30 07:23:18;;;;;;;12.45;7.15;;;;;;;-1.78;83.16;100095.53;5032978;28;20084;-67
2021/01/30 07:25:50;;;;;;;11.70;6.40;;;;;;;-1.82;83.44;100105.38;5032557;28;20037;-67
2021/01/30 07:28:31;;;;;;;12.80;6.43;;;;;;;-1.88;83.08;100104.94;5032688;28;20053;-67
2021/01/30 07:31:06;;;;;;;11.80;6.50;;;;;;;-1.86;83.73;100103.06;5032704;28;20048;-67
2021/01/30 07:33:52;;;;;;;13.10;6.83;;;;;;;-1.86;83.47;100110.91;5032894;28;20116;-67
2021/01/30 07:36:20;;;;;;;;;;;;;;;-1.82;83.58;100105.38;5032777;28;20033;-68
2021/01/30 07:39:01;;;;;;;10.60;6.15;;;;;;;-1.84;83.14;100104.66;5032661;28;20731;-68
2021/01/30 07:41:30;;;;;;;13.32;7.00;;;;;;;-1.87;83.26;100110.09;5032531;28;20481;-67
2021/01/30 07:44:12;;;;;;;11.82;6.43;;;;;;;-1.79;83.56;100117.44;5015875;28;20386;-68
2021/01/30 07:46:42;;;;;;;15.45;6.80;;;;;;;-1.61;84.59;100120.66;5015567;28;20033;-67
2021/01/30 07:49:15;;;;;;;10.32;6.18;;;;;;;-1.57;84.33;100122.97;5033254;28;20465;-67
2021/01/30 07:52:17;;;;;;;13.77;6.65;;;;;;;-1.59;83.64;100123.97;5015959;28;20071;-67
2021/01/30 07:54:49;;;;;;;10.40;5.65;;;;;;;-1.59;83.51;100126.59;5025776;28;20089;-68
2021/01/30 07:57:37;;;;;;;14.65;6.97;;;;;;;-1.59;83.18;100123.97;5033049;28;20120;-67
2021/01/30 08:00:12;;;;;;;12.75;6.93;;;;;;;-1.61;83.35;100131.13;5030158;28;20443;-67
2021/01/30 08:03:24;;;;;;;11.73;6.75;;;;;;;-1.65;83.32;100124.41;5031127;28;20457;-67
2021/01/30 08:05:53;;;;;;;12.60;6.25;;;;;;;-1.64;83.07;100136.53;5030521;28;20108;-67
2021/01/30 08:08:29;;;;;;;12.32;6.30;;;;;;;-1.55;83.56;100133.31;5011959;28;20349;-67
2021/01/30 08:11:06;;;;;;;12.32;6.65;;;;;;;-1.51;83.27;100137.41;5027937;28;20452;-68
2021/01/30 08:14:02;;;;;;;15.38;7.60;;;;;;;-1.40;83.57;100150.66;5029406;28;20062;-67
2021/01/30 08:17:14;;;;;;;13.15;6.82;;;;;;;-1.42;82.91;100142.06;5030216;28;20045;-67
2021/01/30 08:19:56;;;;;;;11.85;6.68;;;;;;;-1.28;83.25;100142.00;5017027;28;20053;-67
2021/01/30 08:22:33;;;;;;;9.60;5.75;;;;;;;-1.18;83.10;100141.38;5031111;28;20033;-67
2021/01/30 08:25:07;;;;;;;11.68;6.40;;;;;;;-1.07;82.68;100144.13;5032304;28;20087;-67
2021/01/30 08:27:38;;;;;;;11.27;5.68;;;;;;;-0.96;82.59;100133.75;5030842;28;20041;-67
2021/01/30 08:30:12;;;;;;;9.63;5.40;;;;;;;-1.03;80.82;100143.00;5030333;28;20447;-67
2021/01/30 08:32:52;;;;;;;9.25;5.53;;;;;;;-0.83;81.46;100136.38;5032378;28;20059;-67
2021/01/30 08:35:21;;;;;;;9.85;6.30;;;;;;;-0.31;83.86;100135.38;5030459;28;20065;-67
2021/01/30 08:38:07;;;;;;;11.20;6.57;;;;;;;-0.15;81.40;100137.78;5031236;28;20037;-68
2021/01/30 08:40:52;;;;;;;10.55;6.78;;;;;;;-0.27;78.71;100141.28;5031557;28;20033;-68
2021/01/30 08:43:35;;;;;;;11.48;6.00;;;;;;;-0.21;79.99;100148.72;5030158;28;20122;-68
2021/01/30 08:46:31;;;;;;;9.10;5.53;;;;;;;-0.28;79.05;100135.19;5014280;28;20033;-68
2021/01/30 08:49:15;;;;;;;12.75;5.53;;;;;;;-0.16;78.88;100143.97;5031833;28;20068;-69
2021/01/30 08:51:46;;;;;;;9.80;5.93;;;;;;;-0.33;77.62;100141.69;5030323;28;20071;-75
2021/01/30 08:54:37;;;;;;;9.75;5.90;;;;;;;-0.17;79.30;100151.94;5030795;28;20045;-77
2021/01/30 08:57:05;;;;;;;8.48;5.20;;;;;;;0.04;78.66;100160.09;5031633;28;20119;-76
2021/01/30 08:59:50;;;;;;;11.50;5.60;;;;;;;0.05;77.46;100162.63;5031017;28;20033;-76
2021/01/30 09:02:32;;;;;;;9.27;5.78;;;;;;;0.06;78.05;100161.66;5030606;28;20079;-76
2021/01/30 09:05:05;;;;;;;7.65;4.93;;;;;;;0.12;76.83;100161.22;5030690;28;20371;-76
2021/01/30 09:07:37;;;;;;;9.75;5.63;;;;;;;0.01;76.04;100161.16;5031471;28;20029;-76
2021/01/30 09:10:12;;;;;;;9.48;5.68;;;;;;;0.02;76.09;100160.19;5031734;28;20045;-76
2021/01/30 09:12:57;;;;;;;9.77;5.60;;;;;;;0.16;76.47;100169.72;5031509;28;20037;-77
2021/01/30 09:15:37;;;;;;;7.32;4.85;;;;;;;0.26;76.49;100160.25;5031709;28;20069;-76
2021/01/30 09:18:13;;;;;;;8.30;5.47;;;;;;;0.25;76.21;100161.16;5013845;28;20041;-76
2021/01/30 09:21:17;;;;;;;12.68;5.88;;;;;;;0.35;76.12;100156.09;5030709;28;20106;-77
2021/01/30 09:23:59;;;;;;;9.10;5.70;;;;;;;0.19;76.70;100159.00;5029295;28;20478;-76
2021/01/30 09:26:49;;;;;;;9.10;5.95;;;;;;;0.27;75.55;100161.91;5013635;28;20033;-76
2021/01/30 09:29:19;;;;;;;11.80;6.45;;;;;;;0.31;75.77;100158.13;5030024;28;20083;-76
2021/01/30 09:31:45;;;;;;;11.68;6.35;;;;;;;0.17;76.55;100166.16;5012392;28;20408;-77
2021/01/30 09:34:17;;;;;;;11.75;6.10;;;;;;;0.36;75.20;100170.91;5028888;28;20060;-76
2021/01/30 09:36:48;;;;;;;10.32;6.13;;;;;;;0.55;75.96;100167.78;5028706;28;20040;-77
2021/01/30 09:39:40;;;;;;;12.77;6.05;;;;;;;0.80;74.87;100167.66;5029662;28;20081;-77
2021/01/30 09:42:17;;;;;;;11.45;5.90;;;;;;;0.92;74.43;100162.44;5029487;28;20451;-77
2021/01/30 09:44:43;;;;;;;8.80;5.22;;;;;;;1.14;73.49;100167.72;5029100;28;20414;-76
2021/01/30 09:47:18;;;;;;;8.15;5.28;;;;;;;1.34;72.55;100166.25;5030243;28;20042;-76
2021/01/30 09:49:47;;;;;;;7.35;4.63;;;;;;;1.39;70.05;100171.16;5030338;28;20049;-76
2021/01/30 09:52:20;;;;;;;8.80;5.25;;;;;;;1.94;71.80;100169.47;5029807;28;20038;-77
2021/01/30 09:54:51;;;;;;;8.30;5.38;;;;;;;2.96;66.60;100165.56;5031059;28;20037;-77
2021/01/30 09:57:26;;;;;;;9.52;6.00;;;;;;;2.58;67.91;100167.91;5030308;28;20550;-77
2021/01/30 09:59:56;;;;;;;8.85;5.65;;;;;;;2.48;67.98;100178.34;5030433;28;20033;-78
2021/01/30 10:02:23;;;;;;;9.75;5.20;;;;;;;2.33;67.80;100172.53;5030082;28;20617;-77
2021/01/30 10:05:01;;;;;;;10.13;4.70;;;;;;;2.36;67.19;100176.72;5030149;28;20041;-77
2021/01/30 10:07:26;;;;;;;7.28;4.75;;;;;;;3.34;64.72;100169.44;5031586;28;20041;-78
2021/01/30 10:09:52;;;;;;;7.20;4.10;;;;;;;4.98;59.63;100175.28;5034272;28;20422;-78
2021/01/30 10:12:21;;;;;;;9.33;5.07;;;;;;;5.48;56.92;100172.44;5034710;28;20107;-78
2021/01/30 10:14:50;;;;;;;7.82;4.63;;;;;;;4.78;58.17;100168.34;5035319;28;20037;-79
2021/01/30 10:17:21;;;;;;;8.32;5.10;;;;;;;4.93;58.35;100174.03;5034188;28;20103;-79
2021/01/30 10:19:55;;;;;;;6.85;4.45;;;;;;;4.38;59.29;100174.56;5033828;28;20425;-80
2021/01/30 10:22:23;;;;;;;7.10;4.38;;;;;;;3.30;60.74;100169.81;5034394;28;20060;-79
2021/01/30 10:24:58;;;;;;;6.63;3.90;;;;;;;1.49;66.10;100177.38;5034857;28;20059;-79
2021/01/30 10:27:29;;;;;;;7.77;4.23;;;;;;;0.88;68.12;100184.63;5034824;28;20053;-80
2021/01/30 10:29:56;;;;;;;13.07;5.18;;;;;;;0.74;70.52;100183.84;5035232;28;20429;-79
2021/01/30 10:32:34;;;;;;;8.20;4.25;;;;;;;1.06;69.00;100183.28;5036568;28;20048;-77
2021/01/30 10:35:04;;;;;;;9.75;5.00;;;;;;;0.99;70.34;100189.94;5033497;28;20052;-77
2021/01/30 10:37:55;;;;;;;7.45;5.00;;;;;;;1.25;70.31;100195.88;5032656;28;20116;-77
2021/01/30 10:40:38;;;;;;;8.70;5.18;;;;;;;1.30;69.83;100198.16;5032152;28;20045;-77
2021/01/30 10:43:35;;;;;;;9.88;5.13;;;;;;;1.40;69.52;100199.09;5031744;28;20100;-77
2021/01/30 10:46:13;;;;;;;6.68;4.18;;;;;;;1.67;67.68;100197.00;5029545;28;20049;-77
2021/01/30 10:48:39;;;;;;;8.73;4.90;;;;;;;1.49;67.64;100203.66;5032890;28;20124;-78
2021/01/30 10:51:17;;;;;;;10.47;5.17;;;;;;;1.04;68.67;100190.44;5031916;28;20427;-78
2021/01/30 10:53:43;;;;;;;6.22;4.03;;;;;;;0.95;68.27;100185.84;5034167;28;20467;-78
2021/01/30 10:56:20;;;;;;;6.37;3.47;;;;;;;1.39;67.11;100192.19;5034208;28;20037;-79
2021/01/30 10:58:48;;;;;;;7.20;3.78;;;;;;;1.55;66.38;100192.69;5033584;28;20288;-76
2021/01/30 11:01:19;;;;;;;7.72;3.92;;;;;;;1.43;66.15;100194.47;5034516;28;20375;-76
2021/01/30 11:04:00;;;;;;;8.55;5.10;;;;;;;1.23;67.70;100203.84;5033810;28;20657;-75
2021/01/30 11:06:35;;;;;;;6.72;4.55;;;;;;;1.25;67.61;100203.75;5032740;28;20710;-76
2021/01/30 11:09:16;;;;;;;6.07;3.65;;;;;;;1.20;68.68;100195.38;5033565;28;20868;-76
2021/01/30 11:11:42;;;;;;;8.98;5.25;;;;;;;0.98;70.81;100206.66;5034091;28;20159;-76
2021/01/30 11:14:30;;;;;;;8.35;5.25;;;;;;;0.54;71.24;100208.13;5033252;28;20044;-76
2021/01/30 11:16:56;;;;;;;9.07;5.57;;;;;;;0.25;71.89;100195.31;5033814;28;20417;-76
2021/01/30 11:19:26;;;;;;;9.07;5.05;;;;;;;0.52;73.36;100196.91;5032578;28;20048;-75
2021/01/30 11:22:10;;;;;;;10.90;5.22;;;;;;;0.64;73.04;100190.75;5033833;28;20044;-75
2021/01/30 11:24:47;;;;;;;10.20;4.95;;;;;;;0.90;72.15;100191.44;5033874;28;20045;-74
2021/01/30 11:27:34;;;;;;;10.00;5.35;;;;;;;0.84;71.87;100192.75;5032453;28;20052;-73
2021/01/30 11:30:21;;;;;;;5.97;4.05;;;;;;;0.62;71.74;100200.53;5033662;28;20414;-73
2021/01/30 11:33:01;;;;;;;7.95;4.97;;;;;;;0.47;71.75;100199.00;5033444;28;20037;-73
2021/01/30 11:35:34;;;;;;;9.35;5.60;;;;;;;0.58;71.18;100202.53;5032570;28;20033;-73
2021/01/30 11:38:21;;;;;;;9.13;4.30;;;;;;;0.43;72.32;100203.66;5032424;28;20443;-75
2021/01/30 11:40:50;;;;;;;8.27;4.20;;;;;;;0.59;71.40;100198.13;5033380;28;20060;-74
2021/01/30 11:43:15;;;;;;;7.82;4.68;;;;;;;0.43;71.53;100197.56;5033303;28;20029;-77
2021/01/30 11:45:41;;;;;;;9.30;5.53;;;;;;;0.36;73.73;100203.25;5032185;28;20052;-77
2021/01/30 11:48:06;;;;;;;6.67;4.50;;;;;;;0.62;72.34;100208.41;5015717;28;20045;-77
2021/01/30 11:50:31;;;;;;;6.32;4.18;;;;;;;0.68;72.00;100200.09;5033314;28;20061;-76
2021/01/30 11:53:15;;;;;;;8.17;4.97;;;;;;;0.89;70.93;100209.94;5032273;28;20136;-77
2021/01/30 11:55:41;;;;;;;8.13;5.13;;;;;;;1.15;70.15;100200.97;5015485;28;20033;-76